Time;durP1;ratioP1;P1;durP2;ratioP2;P2;SDS_P1;SDS_P2;PMS_P1;PMS_P2;Temp;Humidity;BMP_temperature;BMP_pressure;BME280_temperature;BME280_humidity;BME280_pressure;Samples;Min_cycle;Max_cycle;Signal;HPM_P1;HPM_P2
2021/04/22 00:02:19;;;;;;;2.60;1.60;;;12.10;99.90;;;;;;5095399;28;20480;-59
2021/04/22 00:04:46;;;;;;;2.67;1.65;;;12.10;99.90;;;;;;5094922;28;20526;-58
2021/04/22 00:07:13;;;;;;;3.55;1.75;;;12.10;99.90;;;;;;5094924;28;20517;-59
2021/04/22 00:09:39;;;;;;;2.88;1.50;;;12.10;99.90;;;;;;5094993;28;20473;-59
2021/04/22 00:12:08;;;;;;;2.17;1.60;;;12.10;99.90;;;;;;5095178;28;20461;-59
2021/04/22 00:14:35;;;;;;;1.90;1.40;;;12.10;99.90;;;;;;5095224;28;20530;-59
2021/04/22 00:17:01;;;;;;;2.17;1.50;;;12.10;99.90;;;;;;5094433;28;20441;-59
2021/04/22 00:19:28;;;;;;;3.50;1.50;;;12.10;99.90;;;;;;5094921;28;20928;-59
2021/04/22 00:21:54;;;;;;;2.20;1.70;;;12.10;99.90;;;;;;5095267;28;20460;-59
2021/04/22 00:24:21;;;;;;;3.45;1.80;;;12.20;99.90;;;;;;5095107;28;20434;-59
2021/04/22 00:26:47;;;;;;;2.28;1.67;;;12.30;99.90;;;;;;5094703;28;20794;-59
2021/04/22 00:29:14;;;;;;;2.58;2.10;;;12.30;99.90;;;;;;5095558;28;20472;-59
2021/04/22 00:31:41;;;;;;;2.37;1.40;;;12.20;99.90;;;;;;5094080;28;20466;-58
2021/04/22 00:34:07;;;;;;;4.30;1.90;;;12.20;99.90;;;;;;5094304;28;20507;-59
2021/04/22 00:36:33;;;;;;;2.28;2.00;;;12.30;99.90;;;;;;5094537;28;20446;-58
2021/04/22 00:39:00;;;;;;;2.90;1.75;;;12.30;99.90;;;;;;5094716;28;20422;-59
2021/04/22 00:41:26;;;;;;;3.42;1.80;;;12.30;99.90;;;;;;5094865;28;20457;-59
2021/04/22 00:43:54;;;;;;;3.58;1.60;;;12.40;99.90;;;;;;5094853;28;20433;-59
2021/04/22 00:46:21;;;;;;;2.25;1.55;;;12.40;99.90;;;;;;5094980;28;20475;-59
2021/04/22 00:48:48;;;;;;;2.90;2.10;;;12.50;99.90;;;;;;5094145;28;20429;-58
2021/04/22 00:51:14;;;;;;;2.80;2.05;;;12.50;99.90;;;;;;5094156;28;20513;-59
2021/04/22 00:53:41;;;;;;;2.20;1.60;;;12.60;99.90;;;;;;5094088;28;20422;-58
2021/04/22 00:56:08;;;;;;;3.45;2.55;;;12.60;99.90;;;;;;5094598;28;20513;-59
2021/04/22 00:58:34;;;;;;;4.50;3.10;;;12.60;99.90;;;;;;5094076;28;20443;-58
2021/04/22 01:01:02;;;;;;;3.77;2.60;;;12.40;99.90;;;;;;5094030;28;20649;-59
2021/04/22 01:03:30;;;;;;;6.00;3.65;;;12.40;99.90;;;;;;5094728;28;20453;-59
2021/04/22 01:05:59;;;;;;;5.15;4.00;;;12.40;99.90;;;;;;5094243;28;20426;-59
2021/04/22 01:08:26;;;;;;;7.75;4.60;;;12.30;99.90;;;;;;5094148;28;20468;-58
2021/04/22 01:10:53;;;;;;;5.05;4.15;;;12.30;99.90;;;;;;5093364;28;20621;-58
2021/04/22 01:13:20;;;;;;;5.20;3.28;;;12.40;99.90;;;;;;5093303;28;20493;-59
2021/04/22 01:15:47;;;;;;;5.13;4.07;;;12.20;99.90;;;;;;5094403;28;20418;-58
2021/04/22 01:18:14;;;;;;;4.33;3.53;;;12.00;99.90;;;;;;5093130;28;20555;-58
2021/04/22 01:20:44;;;;;;;4.88;4.07;;;11.70;99.90;;;;;;5092241;28;20859;-58
2021/04/22 01:23:12;;;;;;;5.60;3.90;;;11.40;99.90;;;;;;5092733;28;20872;-58
2021/04/22 01:25:41;;;;;;;8.38;4.25;;;11.30;99.90;;;;;;5093454;28;20505;-58
2021/04/22 01:28:10;;;;;;;5.00;3.07;;;11.20;99.90;;;;;;5092873;28;20882;-58
2021/04/22 01:30:38;;;;;;;7.68;3.55;;;11.20;99.90;;;;;;5093172;28;20429;-58
2021/04/22 01:33:05;;;;;;;5.00;3.53;;;11.30;99.90;;;;;;5092122;28;20453;-57
2021/04/22 01:35:33;;;;;;;7.78;4.32;;;11.40;99.90;;;;;;5093154;28;20518;-58
2021/04/22 01:38:01;;;;;;;6.30;5.20;;;11.60;99.90;;;;;;5092291;28;20453;-58
2021/04/22 01:40:29;;;;;;;6.18;5.57;;;11.70;99.90;;;;;;5091215;28;20418;-58
2021/04/22 01:42:56;;;;;;;5.82;4.82;;;11.70;99.90;;;;;;5091816;28;20724;-57
2021/04/22 01:45:22;;;;;;;7.27;6.00;;;11.70;99.90;;;;;;5091880;28;20453;-59
2021/04/22 01:47:49;;;;;;;8.10;5.13;;;11.70;99.90;;;;;;5092967;28;20516;-56
2021/04/22 01:50:18;;;;;;;4.78;3.60;;;11.80;99.90;;;;;;5092670;28;20522;-57
2021/04/22 01:52:45;;;;;;;4.33;3.30;;;12.00;99.90;;;;;;5092613;28;20507;-57
2021/04/22 01:55:16;;;;;;;7.07;4.77;;;12.00;99.90;;;;;;5093673;28;20783;-57
2021/04/22 01:57:43;;;;;;;5.83;4.23;;;12.00;99.90;;;;;;5093862;28;20762;-57
2021/04/22 02:00:13;;;;;;;5.25;4.30;;;11.90;99.90;;;;;;5093314;28;20829;-57
2021/04/22 02:02:40;;;;;;;6.80;6.10;;;11.90;99.90;;;;;;5093035;28;20847;-57
2021/04/22 02:05:09;;;;;;;7.45;5.53;;;11.90;99.90;;;;;;5092938;28;20461;-57
2021/04/22 02:07:35;;;;;;;7.03;5.70;;;11.80;99.90;;;;;;5093155;28;20791;-58
2021/04/22 02:10:01;;;;;;;6.10;5.50;;;11.70;99.90;;;;;;5093065;28;20785;-57
2021/04/22 02:12:28;;;;;;;8.10;6.40;;;11.70;99.90;;;;;;5094119;28;20418;-56
2021/04/22 02:14:55;;;;;;;7.70;6.07;;;11.70;99.90;;;;;;5094030;28;20508;-55
2021/04/22 02:17:22;;;;;;;8.05;7.22;;;11.70;99.90;;;;;;5092894;28;21481;-55
2021/04/22 02:19:48;;;;;;;8.20;7.13;;;11.80;99.90;;;;;;5093035;28;20421;-56
2021/04/22 02:22:14;;;;;;;9.07;7.15;;;11.80;99.90;;;;;;5092818;28;20422;-57
2021/04/22 02:24:41;;;;;;;7.95;7.10;;;11.70;99.90;;;;;;5092802;28;20461;-54
2021/04/22 02:27:08;;;;;;;9.95;7.57;;;11.50;99.90;;;;;;5092767;28;20418;-56
2021/04/22 02:29:34;;;;;;;10.60;8.23;;;11.50;99.90;;;;;;5092761;28;20430;-57
2021/04/22 02:32:02;;;;;;;11.18;8.43;;;11.60;99.90;;;;;;5092023;28;20476;-54
2021/04/22 02:34:29;;;;;;;12.15;9.15;;;11.60;99.90;;;;;;5092063;28;20437;-56
2021/04/22 02:36:56;;;;;;;10.70;8.10;;;11.70;99.90;;;;;;5092491;28;20729;-56
2021/04/22 02:39:22;;;;;;;12.30;9.68;;;11.60;99.90;;;;;;5094001;28;20473;-57
2021/04/22 02:41:48;;;;;;;13.15;9.93;;;11.60;99.90;;;;;;5093425;28;20457;-58
2021/04/22 02:44:15;;;;;;;10.63;9.32;;;11.60;99.90;;;;;;5096848;28;20953;-57
2021/04/22 02:46:41;;;;;;;13.05;9.75;;;11.50;99.90;;;;;;5097232;28;20518;-57
2021/04/22 02:49:09;;;;;;;13.70;10.13;;;11.50;99.90;;;;;;5096634;28;20490;-57
2021/04/22 02:51:35;;;;;;;12.60;10.05;;;11.60;99.90;;;;;;5097362;28;20430;-54
2021/04/22 02:54:02;;;;;;;12.50;10.38;;;11.50;99.90;;;;;;5097314;28;20445;-57
2021/04/22 02:56:28;;;;;;;13.07;9.55;;;11.50;99.90;;;;;;5097539;28;20480;-56
2021/04/22 02:58:55;;;;;;;13.00;9.93;;;11.50;99.90;;;;;;5097356;28;20426;-53
2021/04/22 03:01:21;;;;;;;10.80;8.95;;;11.50;99.90;;;;;;5096355;28;20418;-57
2021/04/22 03:03:47;;;;;;;10.48;9.20;;;11.50;99.90;;;;;;5096359;28;20454;-55
2021/04/22 03:06:15;;;;;;;12.63;9.68;;;11.50;99.90;;;;;;5096703;28;20450;-55
2021/04/22 03:08:41;;;;;;;13.05;10.05;;;11.40;99.90;;;;;;5095441;28;20524;-56
2021/04/22 03:11:08;;;;;;;12.68;9.73;;;11.40;99.90;;;;;;5095504;28;20472;-55
2021/04/22 03:13:34;;;;;;;13.15;10.43;;;11.40;99.90;;;;;;5095355;28;20539;-57
2021/04/22 03:16:01;;;;;;;12.98;10.80;;;11.50;99.90;;;;;;5094609;28;20522;-56
2021/04/22 03:18:27;;;;;;;14.75;10.73;;;11.50;99.90;;;;;;5095907;28;20445;-56
2021/04/22 03:20:53;;;;;;;11.88;9.60;;;11.50;99.90;;;;;;5094816;28;20417;-55
2021/04/22 03:23:21;;;;;;;11.90;9.10;;;11.50;99.90;;;;;;5095200;28;20526;-57
2021/04/22 03:25:47;;;;;;;12.60;10.43;;;11.50;99.90;;;;;;5094875;28;20445;-51
2021/04/22 03:28:14;;;;;;;13.98;9.70;;;11.50;99.90;;;;;;5094428;28;20437;-56
2021/04/22 03:30:42;;;;;;;13.55;9.45;;;11.40;99.90;;;;;;5094477;28;20663;-56
2021/04/22 03:33:08;;;;;;;11.27;9.70;;;11.30;99.90;;;;;;5095008;28;20725;-57
2021/04/22 03:35:35;;;;;;;12.30;9.38;;;11.40;99.90;;;;;;5094014;28;20422;-55
2021/04/22 03:38:01;;;;;;;10.40;8.57;;;11.40;99.90;;;;;;5095221;28;20465;-54
2021/04/22 03:40:30;;;;;;;11.90;9.02;;;11.40;99.90;;;;;;5095271;28;20511;-56
2021/04/22 03:42:57;;;;;;;11.17;8.57;;;11.40;99.90;;;;;;5095347;28;20453;-56
2021/04/22 03:45:25;;;;;;;11.13;8.63;;;11.40;99.90;;;;;;5095431;28;20472;-55
2021/04/22 03:47:52;;;;;;;10.57;8.63;;;11.30;99.90;;;;;;5096136;28;20470;-57
2021/04/22 03:50:19;;;;;;;11.43;8.40;;;11.30;99.90;;;;;;5095233;28;20457;-54
2021/04/22 03:52:46;;;;;;;10.67;8.13;;;11.20;99.90;;;;;;5096184;28;20461;-56
2021/04/22 03:55:15;;;;;;;10.27;7.25;;;11.10;99.90;;;;;;5093908;28;20523;-55
2021/04/22 03:57:42;;;;;;;11.40;8.30;;;11.10;99.90;;;;;;5095072;28;20458;-56
2021/04/22 04:00:11;;;;;;;10.38;7.47;;;11.00;99.90;;;;;;5095417;28;20454;-54
2021/04/22 04:02:37;;;;;;;9.70;8.10;;;10.90;99.90;;;;;;5095842;28;20487;-56
2021/04/22 04:05:04;;;;;;;9.05;7.07;;;10.90;99.90;;;;;;5097873;28;20441;-56
2021/04/22 04:07:31;;;;;;;10.07;7.32;;;10.80;99.90;;;;;;5096004;28;20454;-56
2021/04/22 04:09:57;;;;;;;11.47;8.50;;;10.80;99.90;;;;;;5095426;28;20453;-57
2021/04/22 04:12:24;;;;;;;10.88;7.50;;;10.70;99.90;;;;;;5095457;28;20496;-56
2021/04/22 04:14:51;;;;;;;9.77;7.07;;;10.70;99.90;;;;;;5095378;28;20509;-57
2021/04/22 04:17:17;;;;;;;9.63;7.32;;;10.60;99.90;;;;;;5095234;28;20453;-57
2021/04/22 04:19:44;;;;;;;10.00;7.57;;;10.60;99.90;;;;;;5095367;28;20864;-55
2021/04/22 04:22:10;;;;;;;10.40;7.20;;;10.50;99.90;;;;;;5094303;28;20437;-57
2021/04/22 04:24:37;;;;;;;9.55;7.57;;;10.50;99.90;;;;;;5095275;28;20426;-54
2021/04/22 04:27:04;;;;;;;10.18;8.30;;;10.30;99.90;;;;;;5094739;28;20559;-52
2021/04/22 04:29:30;;;;;;;10.02;7.20;;;10.20;99.90;;;;;;5094909;28;20488;-55
2021/04/22 04:31:57;;;;;;;9.57;7.03;;;10.10;99.90;;;;;;5095115;28;20487;-57
2021/04/22 04:34:24;;;;;;;9.85;7.13;;;10.10;99.90;;;;;;5094874;28;20444;-57
2021/04/22 04:36:50;;;;;;;10.23;7.72;;;10.20;99.90;;;;;;5094204;28;20771;-55
2021/04/22 04:39:17;;;;;;;9.63;7.57;;;10.30;99.90;;;;;;5093670;28;20465;-56
2021/04/22 04:41:44;;;;;;;8.50;6.13;;;10.30;99.90;;;;;;5093541;28;20442;-57
2021/04/22 04:44:11;;;;;;;10.43;7.53;;;10.20;99.90;;;;;;5092486;28;20449;-56
2021/04/22 04:46:38;;;;;;;9.90;7.00;;;10.20;99.90;;;;;;5092517;28;20933;-51
2021/04/22 04:49:07;;;;;;;8.52;6.63;;;10.20;99.90;;;;;;5093049;28;20461;-56
2021/04/22 04:51:34;;;;;;;10.60;8.00;;;10.30;99.90;;;;;;5093408;28;20868;-57
2021/04/22 04:54:02;;;;;;;10.95;7.38;;;10.30;99.90;;;;;;5094647;28;20421;-56
2021/04/22 04:56:29;;;;;;;8.25;6.43;;;10.30;99.90;;;;;;5094273;28;20445;-55
2021/04/22 04:58:55;;;;;;;11.57;8.07;;;10.40;99.90;;;;;;5094138;28;20465;-57
2021/04/22 05:01:22;;;;;;;11.63;7.40;;;10.20;99.90;;;;;;5094421;28;20414;-56
2021/04/22 05:03:48;;;;;;;9.02;6.70;;;10.20;99.90;;;;;;5093314;28;20478;-57
2021/04/22 05:06:16;;;;;;;10.10;7.30;;;10.20;99.90;;;;;;5094506;28;20504;-57
2021/04/22 05:08:43;;;;;;;9.63;6.65;;;10.30;99.90;;;;;;5093695;28;20425;-57
2021/04/22 05:11:09;;;;;;;9.30;7.27;;;10.40;99.90;;;;;;5094169;28;20474;-54
2021/04/22 05:13:36;;;;;;;9.20;6.68;;;10.40;99.90;;;;;;5093168;28;20508;-56
2021/04/22 05:16:03;;;;;;;8.60;7.00;;;10.50;99.90;;;;;;5093836;28;20417;-62
2021/04/22 05:18:29;;;;;;;8.55;6.75;;;10.50;99.90;;;;;;5094432;28;20425;-56
2021/04/22 05:20:56;;;;;;;8.02;6.18;;;10.40;99.90;;;;;;5092854;28;20418;-55
2021/04/22 05:23:23;;;;;;;7.60;6.77;;;10.40;99.90;;;;;;5093109;28;20762;-56
2021/04/22 05:25:50;;;;;;;8.02;7.15;;;10.40;99.90;;;;;;5094632;28;20442;-57
2021/04/22 05:28:16;;;;;;;8.63;6.53;;;10.40;99.90;;;;;;5094735;28;20487;-56
2021/04/22 05:30:44;;;;;;;7.70;5.85;;;10.50;99.90;;;;;;5092633;28;20519;-57
2021/04/22 05:33:11;;;;;;;9.53;7.17;;;10.50;99.90;;;;;;5092195;28;20437;-57
2021/04/22 05:35:38;;;;;;;10.65;7.25;;;10.50;99.90;;;;;;5089873;28;20894;-56
2021/04/22 05:38:05;;;;;;;8.37;6.13;;;10.50;99.90;;;;;;5082565;28;20494;-57
2021/04/22 05:40:32;;;;;;;7.37;6.37;;;10.60;99.90;;;;;;5091042;28;20424;-58
2021/04/22 05:42:59;;;;;;;8.32;6.00;;;10.60;99.90;;;;;;5092768;28;20433;-57
2021/04/22 05:45:26;;;;;;;8.50;7.07;;;10.60;99.90;;;;;;5092262;28;20426;-58
2021/04/22 05:47:53;;;;;;;8.02;6.30;;;10.50;99.90;;;;;;5093271;28;20469;-58
2021/04/22 05:50:21;;;;;;;7.15;5.90;;;10.60;99.90;;;;;;5092794;28;20443;-57
2021/04/22 05:52:47;;;;;;;7.20;6.50;;;10.60;99.90;;;;;;5091036;28;20526;-56
2021/04/22 05:55:15;;;;;;;9.30;7.43;;;10.60;99.90;;;;;;5092337;28;20437;-58
2021/04/22 05:57:43;;;;;;;10.25;7.57;;;10.80;99.90;;;;;;5092225;28;20429;-58
2021/04/22 06:00:13;;;;;;;12.48;6.78;;;10.70;99.90;;;;;;5092238;28;20486;-58
2021/04/22 06:02:40;;;;;;;8.77;6.22;;;10.60;99.90;;;;;;5091670;28;20457;-59
2021/04/22 06:05:08;;;;;;;9.45;6.15;;;10.60;99.90;;;;;;5088835;28;20418;-59
2021/04/22 06:07:35;;;;;;;10.30;7.28;;;10.60;99.90;;;;;;5080411;28;20445;-59
2021/04/22 06:10:01;;;;;;;10.65;7.97;;;10.50;99.90;;;;;;5088763;28;20453;-59
2021/04/22 06:12:27;;;;;;;14.38;9.50;;;10.60;99.90;;;;;;5087008;28;20447;-59
2021/04/22 06:14:55;;;;;;;16.65;12.45;;;10.60;99.90;;;;;;5078682;28;20926;-59
2021/04/22 06:17:21;;;;;;;10.63;8.52;;;10.70;99.90;;;;;;5082880;28;20461;-58
2021/04/22 06:19:48;;;;;;;10.40;7.63;;;10.80;99.90;;;;;;5094433;28;20662;-59
2021/04/22 06:22:14;;;;;;;8.45;6.60;;;10.90;99.90;;;;;;5085061;28;20445;-58
2021/04/22 06:24:40;;;;;;;11.48;6.90;;;10.90;99.90;;;;;;5075540;28;20463;-58
2021/04/22 06:27:07;;;;;;;9.88;8.23;;;11.10;99.90;;;;;;5086982;28;20460;-58
2021/04/22 06:29:33;;;;;;;10.23;7.63;;;11.00;99.90;;;;;;5096591;28;20457;-59
2021/04/22 06:32:01;;;;;;;10.63;8.00;;;11.00;99.90;;;;;;5095436;28;20465;-60
2021/04/22 06:34:27;;;;;;;9.07;7.47;;;11.00;99.90;;;;;;5095433;28;20436;-59
2021/04/22 06:36:53;;;;;;;9.82;7.07;;;11.10;99.90;;;;;;5096297;28;20453;-59
2021/04/22 06:39:20;;;;;;;9.02;6.72;;;11.10;99.90;;;;;;5087408;28;20723;-60
2021/04/22 06:41:46;;;;;;;9.18;7.82;;;11.00;99.90;;;;;;5086091;28;20422;-59
2021/04/22 06:44:13;;;;;;;9.73;6.10;;;11.00;99.90;;;;;;5073863;28;20431;-59
2021/04/22 06:46:39;;;;;;;8.88;6.78;;;11.10;99.90;;;;;;5073989;28;20463;-60
2021/04/22 06:49:06;;;;;;;7.80;5.50;;;11.20;99.90;;;;;;5073314;28;20455;-59
2021/04/22 06:51:34;;;;;;;14.23;6.93;;;11.30;99.90;;;;;;5088646;28;20466;-59
2021/04/22 06:54:00;;;;;;;9.57;6.70;;;11.30;99.90;;;;;;5086632;28;20467;-60
2021/04/22 06:56:27;;;;;;;8.07;6.10;;;11.30;99.90;;;;;;5082405;28;20429;-59
2021/04/22 06:58:55;;;;;;;8.20;6.10;;;11.30;99.90;;;;;;5094295;28;20465;-58
2021/04/22 07:01:21;;;;;;;6.10;5.18;;;11.30;99.90;;;;;;5093320;28;20426;-57
2021/04/22 07:03:47;;;;;;;6.55;5.03;;;11.20;99.90;;;;;;5093144;28;20466;-59
2021/04/22 07:06:16;;;;;;;8.32;6.40;;;11.10;99.90;;;;;;5075963;28;20420;-59
2021/04/22 07:08:42;;;;;;;7.70;5.80;;;11.10;99.90;;;;;;5074744;28;20722;-59
2021/04/22 07:11:09;;;;;;;8.43;4.82;;;11.10;99.90;;;;;;5083919;28;20755;-59
2021/04/22 07:13:36;;;;;;;7.07;4.82;;;11.10;99.90;;;;;;5093601;28;21089;-59
2021/04/22 07:16:02;;;;;;;7.60;4.60;;;11.10;99.90;;;;;;5092752;28;20465;-59
2021/04/22 07:18:29;;;;;;;9.93;4.85;;;11.20;99.90;;;;;;5078519;28;20431;-60
2021/04/22 07:20:55;;;;;;;9.25;5.90;;;11.40;99.90;;;;;;5089776;28;20479;-60
2021/04/22 07:23:23;;;;;;;7.83;4.73;;;11.60;99.90;;;;;;5082072;28;20461;-59
2021/04/22 07:25:50;;;;;;;8.80;5.60;;;11.70;99.90;;;;;;5082670;28;20444;-59
2021/04/22 07:28:17;;;;;;;10.30;6.72;;;11.80;99.90;;;;;;5084939;28;20435;-59
2021/04/22 07:30:44;;;;;;;8.43;5.47;;;11.90;99.90;;;;;;5074843;28;20424;-60
2021/04/22 07:33:14;;;;;;;7.82;5.40;;;11.90;99.90;;;;;;5092146;28;20864;-59
2021/04/22 07:35:41;;;;;;;7.82;5.03;;;12.00;99.90;;;;;;5091819;28;20453;-59
2021/04/22 07:38:10;;;;;;;8.40;4.95;;;12.00;99.90;;;;;;5093431;28;20726;-60
2021/04/22 07:40:39;;;;;;;6.75;5.30;;;11.90;99.90;;;;;;5087791;28;20800;-61
2021/04/22 07:43:06;;;;;;;5.70;4.70;;;11.80;99.90;;;;;;5093232;28;20471;-60
2021/04/22 07:45:35;;;;;;;6.63;4.60;;;11.90;99.90;;;;;;5091329;28;20692;-60
2021/04/22 07:48:02;;;;;;;8.50;4.60;;;11.90;99.90;;;;;;5091999;28;20457;-61
2021/04/22 07:50:29;;;;;;;8.43;4.68;;;11.90;99.90;;;;;;5086909;28;20427;-60
2021/04/22 07:52:55;;;;;;;6.70;4.90;;;11.70;99.90;;;;;;5089964;28;20456;-59
2021/04/22 07:55:26;;;;;;;6.10;3.88;;;11.60;99.90;;;;;;5088570;28;20433;-59
2021/04/22 07:57:53;;;;;;;5.38;3.88;;;11.80;99.90;;;;;;5090467;28;20767;-59
2021/04/22 08:00:21;;;;;;;4.70;3.65;;;12.00;99.90;;;;;;5091938;28;20425;-58
2021/04/22 08:02:49;;;;;;;5.88;3.33;;;12.30;99.90;;;;;;5092380;28;20520;-58
2021/04/22 08:05:17;;;;;;;5.60;3.00;;;12.20;99.90;;;;;;5092871;28;20442;-58
2021/04/22 08:07:43;;;;;;;5.45;3.38;;;12.50;99.90;;;;;;5093339;28;20430;-64
2021/04/22 08:10:14;;;;;;;5.67;4.00;;;12.40;99.90;;;;;;5093283;28;20464;-65
2021/04/22 08:12:41;;;;;;;4.93;3.63;;;12.50;99.90;;;;;;5092940;28;20460;-63
2021/04/22 08:15:12;;;;;;;4.90;3.58;;;12.50;99.90;;;;;;5084788;28;20447;-62
2021/04/22 08:17:45;;;;;;;4.75;2.63;;;12.50;99.90;;;;;;5072874;28;20871;-64
2021/04/22 08:20:15;;;;;;;6.97;3.15;;;12.30;99.90;;;;;;5072646;28;20503;-62
2021/04/22 08:22:48;;;;;;;3.72;2.17;;;12.40;99.90;;;;;;5084883;28;20426;-62
2021/04/22 08:25:23;;;;;;;6.68;4.22;;;12.60;99.90;;;;;;5085404;28;20458;-63
2021/04/22 08:27:53;;;;;;;8.13;3.42;;;12.60;99.90;;;;;;5073604;28;20454;-63
2021/04/22 08:30:23;;;;;;;3.85;2.10;;;12.70;99.90;;;;;;5074358;28;20739;-66
2021/04/22 08:32:49;;;;;;;4.22;2.60;;;12.50;99.90;;;;;;5076127;28;20438;-68
2021/04/22 08:35:16;;;;;;;5.03;2.53;;;12.70;99.90;;;;;;5079154;28;20520;-68
2021/04/22 08:37:43;;;;;;;5.57;2.95;;;12.90;99.90;;;;;;5072700;28;20439;-65
2021/04/22 08:40:13;;;;;;;5.28;2.53;;;12.80;99.90;;;;;;5071555;28;20446;-66
2021/04/22 08:42:40;;;;;;;4.70;2.13;;;12.60;99.90;;;;;;5071843;28;20454;-65
2021/04/22 08:45:08;;;;;;;4.50;2.85;;;12.90;99.90;;;;;;5071516;28;20796;-67
2021/04/22 08:47:36;;;;;;;4.50;2.58;;;13.00;99.90;;;;;;5071605;28;20466;-66
2021/04/22 08:50:05;;;;;;;4.03;2.53;;;13.10;99.90;;;;;;5074377;28;20710;-66
2021/04/22 08:52:31;;;;;;;3.47;3.08;;;13.10;99.90;;;;;;5093366;28;20517;-67
2021/04/22 08:54:58;;;;;;;4.28;2.40;;;13.10;99.90;;;;;;5092583;28;20465;-66
2021/04/22 08:57:25;;;;;;;4.15;2.60;;;13.40;99.90;;;;;;5091881;28;20440;-67
2021/04/22 08:59:53;;;;;;;3.30;1.90;;;13.10;99.90;;;;;;5092414;28;20502;-67
2021/04/22 09:02:19;;;;;;;4.00;2.10;;;13.20;99.90;;;;;;5087518;28;20422;-64
2021/04/22 09:04:47;;;;;;;6.15;2.40;;;13.40;99.90;;;;;;5089387;28;20428;-66
2021/04/22 09:07:14;;;;;;;3.92;2.10;;;13.10;99.90;;;;;;5079902;28;20854;-65
2021/04/22 09:09:40;;;;;;;4.03;2.40;;;12.90;99.90;;;;;;5084791;28;20882;-65
2021/04/22 09:12:16;;;;;;;4.90;2.22;;;12.90;99.90;;;;;;5087190;28;20487;-66
2021/04/22 09:14:52;;;;;;;3.67;2.00;;;12.80;99.90;;;;;;5091286;28;20449;-63
2021/04/22 09:17:19;;;;;;;5.22;2.95;;;12.80;99.90;;;;;;5092726;28;20509;-63
2021/04/22 09:19:47;;;;;;;5.47;2.35;;;13.10;99.90;;;;;;5090524;28;20942;-64
2021/04/22 09:22:14;;;;;;;6.18;3.33;;;13.40;99.90;;;;;;5090187;28;20487;-65
2021/04/22 09:24:41;;;;;;;4.93;2.10;;;13.50;99.90;;;;;;5082476;28;20435;-64
2021/04/22 09:27:13;;;;;;;3.10;1.77;;;13.70;99.90;;;;;;5089962;28;20528;-64
2021/04/22 09:29:43;;;;;;;5.10;2.10;;;14.00;99.90;;;;;;5092134;28;20452;-63
2021/04/22 09:32:13;;;;;;;3.90;1.95;;;14.00;99.90;;;;;;5079100;28;20438;-62
2021/04/22 09:34:43;;;;;;;3.15;1.60;;;14.00;99.90;;;;;;5087128;28;20451;-62
2021/04/22 09:37:10;;;;;;;4.70;2.10;;;14.00;99.90;;;;;;5080238;28;20460;-59
2021/04/22 09:39:37;;;;;;;3.30;1.53;;;14.10;99.90;;;;;;5084876;28;20845;-50
2021/04/22 09:42:09;;;;;;;4.90;1.40;;;14.00;99.90;;;;;;5083895;28;20424;-56
2021/04/22 09:44:37;;;;;;;4.50;1.30;;;14.00;99.90;;;;;;5072433;28;20452;-52
2021/04/22 09:47:09;;;;;;;3.70;1.80;;;14.30;99.90;;;;;;5072464;28;20467;-52
2021/04/22 09:49:45;;;;;;;3.45;1.60;;;13.90;99.90;;;;;;5071807;28;20435;-52
2021/04/22 09:52:15;;;;;;;2.78;1.60;;;13.80;99.90;;;;;;5081701;28;20454;-55
2021/04/22 09:54:44;;;;;;;2.30;1.30;;;14.00;99.90;;;;;;5077522;28;20425;-56
2021/04/22 09:57:20;;;;;;;2.35;1.50;;;14.30;99.90;;;;;;5094240;28;20508;-51
2021/04/22 09:59:46;;;;;;;2.60;1.60;;;14.20;99.90;;;;;;5085309;28;20529;-53
2021/04/22 10:02:13;;;;;;;6.85;1.20;;;14.40;99.90;;;;;;5075062;28;20415;-55
2021/04/22 10:04:41;;;;;;;2.85;1.50;;;14.60;99.90;;;;;;5093335;28;20468;-55
2021/04/22 10:07:21;;;;;;;4.50;1.40;;;14.40;99.90;;;;;;5089633;28;20415;-53
2021/04/22 10:09:49;;;;;;;3.05;1.10;;;14.50;99.90;;;;;;5085386;28;20444;-57
2021/04/22 10:12:24;;;;;;;3.53;1.20;;;14.80;99.90;;;;;;5091250;28;20433;-53
2021/04/22 10:14:51;;;;;;;2.53;1.30;;;15.30;99.90;;;;;;5091468;28;20433;-54
2021/04/22 10:17:19;;;;;;;3.33;1.13;;;15.70;99.90;;;;;;5086213;28;20860;-56
2021/04/22 10:19:57;;;;;;;3.33;1.10;;;15.60;99.90;;;;;;5092141;28;20429;-56
2021/04/22 10:22:32;;;;;;;1.90;0.90;;;15.80;99.90;;;;;;5092314;28;20489;-54
2021/04/22 10:24:59;;;;;;;2.90;1.00;;;15.80;99.90;;;;;;5089732;28;20468;-57
2021/04/22 10:27:27;;;;;;;2.63;0.90;;;15.70;99.90;;;;;;5093623;28;20656;-53
2021/04/22 10:29:54;;;;;;;2.93;1.20;;;16.00;99.90;;;;;;5085601;28;20467;-57
2021/04/22 10:32:22;;;;;;;2.00;1.00;;;16.10;99.90;;;;;;5089881;28;20738;-56
2021/04/22 10:34:50;;;;;;;2.60;1.00;;;16.20;99.90;;;;;;5091630;28;20734;-55
2021/04/22 10:37:17;;;;;;;2.73;0.90;;;16.20;99.80;;;;;;5089470;28;20447;-57
2021/04/22 10:39:45;;;;;;;1.60;0.90;;;16.30;99.20;;;;;;5090695;28;20458;-50
2021/04/22 10:42:12;;;;;;;1.83;1.27;;;16.40;97.70;;;;;;5093815;28;20463;-54
2021/04/22 10:44:39;;;;;;;2.05;0.90;;;16.80;97.00;;;;;;5094486;28;21100;-56
2021/04/22 10:47:06;;;;;;;2.63;0.90;;;16.70;95.20;;;;;;5093103;28;20437;-52
2021/04/22 10:49:33;;;;;;;1.30;0.70;;;16.70;92.60;;;;;;5080162;28;20436;-50
2021/04/22 10:52:02;;;;;;;1.17;0.70;;;16.70;94.00;;;;;;5084815;28;20814;-54
2021/04/22 10:54:31;;;;;;;1.70;0.90;;;16.90;93.00;;;;;;5087015;28;20875;-52
2021/04/22 10:57:07;;;;;;;1.50;0.77;;;17.00;92.70;;;;;;5090116;28;20515;-51
2021/04/22 10:59:34;;;;;;;1.48;0.75;;;17.40;90.00;;;;;;5088536;28;20903;-53
2021/04/22 11:02:13;;;;;;;1.52;0.73;;;17.40;87.30;;;;;;5090960;28;20414;-53
2021/04/22 11:04:40;;;;;;;1.20;0.70;;;17.20;84.80;;;;;;5082472;28;20494;-53
2021/04/22 11:07:15;;;;;;;2.13;0.70;;;17.10;88.60;;;;;;5092505;28;20744;-50
2021/04/22 11:09:41;;;;;;;1.45;0.60;;;17.20;84.50;;;;;;5072855;28;20483;-54
2021/04/22 11:12:11;;;;;;;1.00;0.60;;;17.30;78.50;;;;;;5090711;28;20465;-48
2021/04/22 11:14:43;;;;;;;1.60;0.70;;;17.20;77.00;;;;;;5090371;28;20430;-49
2021/04/22 11:17:10;;;;;;;2.50;0.60;;;17.40;75.10;;;;;;5094075;28;20479;-54
2021/04/22 11:19:40;;;;;;;1.40;0.70;;;17.80;77.30;;;;;;5089104;28;20430;-55
2021/04/22 11:22:14;;;;;;;1.38;0.70;;;18.10;73.80;;;;;;5087987;28;20418;-56
2021/04/22 11:24:51;;;;;;;1.80;0.80;;;17.50;76.70;;;;;;5089923;28;20433;-55
2021/04/22 11:27:20;;;;;;;1.90;0.80;;;17.10;79.10;;;;;;5086581;28;20505;-55
2021/04/22 11:29:49;;;;;;;1.70;0.80;;;17.40;80.30;;;;;;5089336;28;20476;-54
2021/04/22 11:32:22;;;;;;;1.25;0.70;;;18.20;75.10;;;;;;5086445;28;20423;-56
2021/04/22 11:34:50;;;;;;;1.20;0.70;;;18.60;72.60;;;;;;5076258;28;20434;-55
2021/04/22 11:37:20;;;;;;;8.88;1.00;;;18.60;71.00;;;;;;5092345;28;20418;-55
2021/04/22 11:39:48;;;;;;;1.88;0.80;;;18.50;68.70;;;;;;5089886;28;20495;-57
2021/04/22 11:42:15;;;;;;;1.13;0.68;;;18.00;70.60;;;;;;5070897;28;20443;-55
2021/04/22 11:44:48;;;;;;;2.45;0.70;;;17.60;71.30;;;;;;5072488;28;20756;-56
2021/04/22 11:47:21;;;;;;;2.20;0.80;;;17.80;72.80;;;;;;5020839;28;1445307;-55
2021/04/22 11:49:49;;;;;;;1.60;0.70;;;18.30;69.40;;;;;;5091745;28;20472;-57
2021/04/22 11:52:19;;;;;;;1.50;0.70;;;18.40;65.80;;;;;;5093098;28;20437;-55
2021/04/22 11:54:47;;;;;;;2.00;0.70;;;18.30;67.60;;;;;;5092568;28;20429;-53
2021/04/22 11:57:14;;;;;;;2.00;0.70;;;18.70;68.10;;;;;;5092692;28;20475;-57
2021/04/22 11:59:42;;;;;;;1.63;0.70;;;19.20;68.40;;;;;;5092139;28;20448;-56
2021/04/22 12:02:11;;;;;;;2.00;0.73;;;19.10;65.10;;;;;;5081568;28;20458;-56
2021/04/22 12:04:40;;;;;;;2.20;0.97;;;19.10;64.80;;;;;;5072523;28;20423;-57
2021/04/22 12:07:12;;;;;;;1.40;0.80;;;19.20;65.60;;;;;;5082462;28;20421;-57
2021/04/22 12:09:41;;;;;;;2.20;0.82;;;19.30;66.60;;;;;;5092469;28;20426;-56
2021/04/22 12:12:14;;;;;;;2.28;0.82;;;19.50;65.80;;;;;;5090857;28;20797;-57
2021/04/22 12:14:42;;;;;;;2.35;0.90;;;19.40;65.60;;;;;;5090355;28;20430;-58
2021/04/22 12:17:23;;;;;;;2.15;0.70;;;19.50;63.80;;;;;;5082362;28;20424;-56
2021/04/22 12:19:51;;;;;;;1.15;0.70;;;19.20;59.50;;;;;;5083087;28;21309;-55
2021/04/22 12:22:28;;;;;;;1.95;0.65;;;19.20;59.00;;;;;;5081931;28;20494;-58
2021/04/22 12:24:55;;;;;;;3.15;0.60;;;19.40;59.80;;;;;;5079487;28;20428;-54
2021/04/22 12:27:45;;;;;;;1.50;0.70;;;19.80;57.90;;;;;;5084858;28;20843;-67
2021/04/22 12:30:35;;;;;;;1.13;0.70;;;19.60;58.40;;;;;;5085580;28;20434;-70
2021/04/22 12:33:08;;;;;;;2.03;0.80;;;19.60;60.70;;;;;;5081810;28;20755;-70
2021/04/22 12:35:36;;;;;;;2.40;0.80;;;19.50;61.60;;;;;;5080322;28;20548;-69
2021/04/22 12:38:20;;;;;;;1.90;0.80;;;19.60;60.50;;;;;;5083998;28;20511;-61
2021/04/22 12:40:56;;;;;;;1.90;0.70;;;19.60;60.90;;;;;;5079178;28;20437;-63
2021/04/22 12:43:23;;;;;;;27.65;2.22;;;19.50;60.30;;;;;;5085295;28;20524;-63
2021/04/22 12:45:50;;;;;;;1.98;0.70;;;19.50;59.10;;;;;;5090896;28;20483;-71
2021/04/22 12:48:17;;;;;;;1.55;0.70;;;19.80;57.30;;;;;;5072918;28;20454;-69
2021/04/22 12:50:46;;;;;;;1.38;0.70;;;19.90;56.00;;;;;;5080212;28;20434;-69